createdAt,value
2022-09-07T00:01:09.600Z,96523.69
2022-09-07T00:03:37.881Z,96525.78
2022-09-07T00:06:11.165Z,96524.44
2022-09-07T00:08:40.218Z,96523.06
2022-09-07T00:11:11.892Z,96527.34
2022-09-07T00:13:41.744Z,96534.00
2022-09-07T00:16:13.768Z,96535.88
2022-09-07T00:18:45.758Z,96532.19
2022-09-07T00:21:15.344Z,96528.47
2022-09-07T00:23:43.218Z,96532.75
2022-09-07T00:26:13.345Z,96541.75
2022-09-07T00:28:41.102Z,96542.81
2022-09-07T00:31:13.720Z,96544.91
2022-09-07T00:33:42.189Z,96534.78
2022-09-07T00:36:10.373Z,96536.91
2022-09-07T00:38:38.749Z,96533.41
2022-09-07T00:41:06.915Z,96538.97
2022-09-07T00:43:37.477Z,96534.44
2022-09-07T00:46:07.427Z,96547.94
2022-09-07T00:48:42.210Z,96544.25
2022-09-07T00:51:13.127Z,96538.38
2022-09-07T00:53:46.177Z,96532.19
2022-09-07T00:56:14.772Z,96531.09
2022-09-07T00:58:44.823Z,96531.84
2022-09-07T01:01:13.177Z,96522.00
2022-09-07T01:03:45.699Z,96523.31
2022-09-07T01:06:18.623Z,96524.63
2022-09-07T01:08:49.850Z,96519.00
2022-09-07T01:11:19.457Z,96502.50
2022-09-07T01:13:49.399Z,96512.81
2022-09-07T01:16:29.207Z,96504.59
2022-09-07T01:19:15.222Z,96500.88
2022-09-07T01:21:58.483Z,96503.81
2022-09-07T01:24:45.486Z,96498.75
2022-09-07T01:27:46.210Z,96481.72
2022-09-07T01:30:17.295Z,96472.66
2022-09-07T01:33:26.943Z,96480.34
2022-09-07T01:36:04.427Z,96474.72
2022-09-07T01:38:39.871Z,96473.94
2022-09-07T01:41:15.199Z,96474.19
2022-09-07T01:43:49.913Z,96464.88
2022-09-07T01:46:22.405Z,96465.13
2022-09-07T01:48:54.054Z,96461.69
2022-09-07T01:51:24.225Z,96464.56
2022-09-07T01:53:56.640Z,96462.97
2022-09-07T01:56:29.741Z,96473.59
2022-09-07T01:59:03.237Z,96475.97
2022-09-07T02:01:36.932Z,96481.81
2022-09-07T02:04:10.167Z,96471.78
2022-09-07T02:06:44.593Z,96473.16
2022-09-07T02:09:18.611Z,96489.56
2022-09-07T02:11:50.434Z,96490.69
2022-09-07T02:14:24.931Z,96484.91
2022-09-07T02:16:57.811Z,96486.25
2022-09-07T02:19:29.660Z,96482.78
2022-09-07T02:22:00.852Z,96483.34
2022-09-07T02:24:34.229Z,96479.63
2022-09-07T02:27:07.177Z,96478.84
2022-09-07T02:29:38.217Z,96480.19
2022-09-07T02:32:07.227Z,96486.81
2022-09-07T02:34:35.171Z,96490.28
2022-09-07T02:37:06.613Z,96495.84
2022-09-07T02:39:39.032Z,96494.78
2022-09-07T02:42:08.465Z,96488.69
2022-09-07T02:44:41.088Z,96498.75
2022-09-07T02:47:19.245Z,96501.91
2022-09-07T02:50:02.279Z,96491.78
2022-09-07T02:52:44.489Z,96484.91
2022-09-07T02:55:24.639Z,96491.78
2022-09-07T02:58:02.568Z,96488.88
2022-09-07T03:00:35.283Z,96486.00
2022-09-07T03:03:19.558Z,96491.31
2022-09-07T03:27:30.735Z,96479.06
2022-09-07T03:35:24.441Z,96483.59
2022-09-07T03:37:52.321Z,96491.31
2022-09-07T03:40:20.692Z,96484.38
2022-09-07T03:42:50.310Z,96495.00
2022-09-07T03:45:18.483Z,96500.28
2022-09-07T03:59:40.189Z,96509.72
2022-09-07T04:02:15.242Z,96507.78
2022-09-07T04:04:51.149Z,96509.09
2022-09-07T04:07:25.100Z,96515.44
2022-09-07T04:10:02.253Z,96518.38
2022-09-07T04:12:45.807Z,96518.16
2022-09-07T04:15:24.981Z,96517.59
2022-09-07T04:18:07.071Z,96520.25
2022-09-07T04:20:44.654Z,96533.50
2022-09-07T04:23:20.790Z,96529.25
2022-09-07T04:25:57.983Z,96527.41
2022-09-07T04:28:39.747Z,96531.41
2022-09-07T04:31:12.123Z,96535.13
2022-09-07T04:33:48.612Z,96548.09
2022-09-07T04:36:23.372Z,96542.81
2022-09-07T04:39:12.483Z,96546.84
2022-09-07T04:44:54.343Z,96558.09
2022-09-07T04:54:05.561Z,96571.13
2022-09-07T04:56:43.240Z,96573.78
2022-09-07T04:59:19.420Z,96564.50
2022-09-07T05:02:11.636Z,96566.94
2022-09-07T05:04:55.847Z,96559.53
2022-09-07T05:07:29.735Z,96561.34
2022-09-07T05:10:02.504Z,96566.19
2022-09-07T05:12:30.913Z,96566.75
2022-09-07T05:15:00.089Z,96572.31
2022-09-07T05:17:31.484Z,96558.59
2022-09-07T05:20:03.036Z,96564.94
2022-09-07T05:22:31.660Z,96570.75
2022-09-07T05:25:00.305Z,96567.53
2022-09-07T05:27:27.851Z,96573.34
2022-09-07T05:32:27.764Z,96572.78
2022-09-07T05:34:56.102Z,96572.22
2022-09-07T05:37:26.113Z,96572.72
2022-09-07T05:39:57.426Z,96574.81
2022-09-07T05:42:28.244Z,96572.34
2022-09-07T05:44:57.755Z,96574.16
2022-09-07T05:47:28.668Z,96562.19
2022-09-07T05:49:57.367Z,96555.28
2022-09-07T05:55:40.286Z,96563.97
2022-09-07T05:58:12.060Z,96567.31
2022-09-07T06:00:48.601Z,96559.63
2022-09-07T06:03:16.679Z,96564.91
2022-09-07T06:05:49.962Z,96567.00
2022-09-07T06:08:20.551Z,96571.28
2022-09-07T06:10:48.600Z,96568.13
2022-09-07T06:13:20.431Z,96570.78
2022-09-07T06:18:38.606Z,96572.38
2022-09-07T06:21:09.155Z,96570.06
2022-09-07T06:23:44.832Z,96564.28
2022-09-07T06:26:14.113Z,96569.88
2022-09-07T06:28:45.888Z,96566.19
2022-09-07T06:31:17.541Z,96570.50
2022-09-07T06:33:47.902Z,96581.72
2022-09-07T06:36:17.466Z,96580.25
2022-09-07T06:38:50.155Z,96586.97
2022-09-07T06:44:09.888Z,96574.16
2022-09-07T06:49:26.719Z,96580.94
2022-09-07T06:51:56.243Z,96580.06
2022-09-07T06:57:12.823Z,96587.94
2022-09-07T06:59:40.555Z,96591.19
2022-09-07T07:02:08.624Z,96587.00
2022-09-07T07:04:40.635Z,96594.75
2022-09-07T07:07:12.984Z,96602.50
2022-09-07T07:09:42.801Z,96609.47
2022-09-07T07:14:49.314Z,96606.13
2022-09-07T07:17:19.034Z,96607.25
2022-09-07T07:19:57.112Z,96612.91
2022-09-07T07:27:46.194Z,96605.63
2022-09-07T07:30:14.716Z,96614.44
2022-09-07T07:32:42.756Z,96615.56
2022-09-07T07:35:11.289Z,96610.06
2022-09-07T07:37:39.109Z,96605.81
2022-09-07T07:40:18.532Z,96607.69
2022-09-07T07:42:50.114Z,96609.06
2022-09-07T07:48:05.605Z,96603.25
2022-09-07T07:50:33.685Z,96606.19
2022-09-07T07:55:49.420Z,96603.81
2022-09-07T07:58:18.344Z,96613.97
2022-09-07T08:01:01.563Z,96608.09
2022-09-07T08:03:29.351Z,96611.81
2022-09-07T08:05:57.657Z,96615.31
2022-09-07T08:08:25.187Z,96608.63
2022-09-07T08:10:52.976Z,96615.81
2022-09-07T08:13:22.292Z,96618.19
2022-09-07T08:15:49.870Z,96620.34
2022-09-07T08:18:18.653Z,96614.16
2022-09-07T08:20:46.201Z,96618.44
2022-09-07T08:23:15.399Z,96614.13
2022-09-07T08:25:50.567Z,96622.38
2022-09-07T08:28:18.091Z,96621.03
2022-09-07T08:30:46.992Z,96622.06
2022-09-07T08:33:14.889Z,96622.81
2022-09-07T08:35:42.467Z,96627.34
2022-09-07T08:38:10.174Z,96627.56
2022-09-07T08:40:48.785Z,96634.16
2022-09-07T08:55:43.515Z,96629.16
2022-09-07T09:19:52.321Z,96640.44
2022-09-07T09:22:21.704Z,96631.41
2022-09-07T09:24:56.268Z,96626.34
2022-09-07T09:27:23.790Z,96626.06
2022-09-07T09:29:51.292Z,96630.22
2022-09-07T09:32:46.421Z,96630.25
2022-09-07T09:35:17.930Z,96631.34
2022-09-07T09:37:45.676Z,96628.38
2022-09-07T09:40:24.853Z,96624.31
2022-09-07T09:43:04.315Z,96624.16
2022-09-07T09:48:32.292Z,96620.81
2022-09-07T09:53:57.083Z,96616.47
2022-09-07T09:56:38.905Z,96605.59
2022-09-07T10:05:27.020Z,96600.09
2022-09-07T10:07:56.326Z,96595.50
2022-09-07T10:10:23.950Z,96588.84
2022-09-07T10:12:55.929Z,96595.31
2022-09-07T10:15:32.855Z,96585.41
2022-09-07T10:18:04.614Z,96585.28
2022-09-07T10:20:35.893Z,96597.69
2022-09-07T10:23:22.552Z,96587.28
2022-09-07T10:25:50.163Z,96593.84
2022-09-07T10:28:22.121Z,96582.88
2022-09-07T10:31:14.670Z,96582.47
2022-09-07T10:36:45.632Z,96572.78
2022-09-07T10:39:18.220Z,96582.88
2022-09-07T10:41:55.786Z,96578.03
2022-09-07T10:44:47.082Z,96578.03
2022-09-07T10:47:29.491Z,96582.19
2022-09-07T10:52:58.264Z,96573.53
2022-09-07T10:55:32.795Z,96569.38
2022-09-07T10:58:15.131Z,96568.84
2022-09-07T11:00:58.188Z,96581.75
2022-09-07T11:03:38.507Z,96556.34
2022-09-07T11:06:18.760Z,96561.81
2022-09-07T11:09:19.874Z,96544.88
2022-09-07T12:43:57.475Z,96480.09
2022-09-07T12:49:53.638Z,96457.56
2022-09-07T12:52:59.891Z,96453.31
2022-09-07T13:04:52.566Z,96439.50
2022-09-07T13:08:22.544Z,96439.50
2022-09-07T13:11:08.775Z,96445.63
2022-09-07T13:14:02.915Z,96440.38
2022-09-07T13:20:25.696Z,96441.50
2022-09-07T13:30:03.419Z,96437.63
2022-09-07T13:47:43.666Z,96407.28
2022-09-07T13:53:51.617Z,96410.44
2022-09-07T13:59:26.747Z,96408.19
2022-09-07T14:01:56.171Z,96409.88
2022-09-07T17:17:10.319Z,96259.16
2022-09-07T17:19:37.880Z,96264.09
2022-09-07T17:22:05.499Z,96270.63
2022-09-07T17:24:33.001Z,96275.28
2022-09-07T17:27:00.979Z,96281.31
2022-09-07T17:29:30.446Z,96275.88
2022-09-07T17:34:48.662Z,96269.97
2022-09-07T17:37:16.134Z,96265.78
2022-09-07T17:39:44.421Z,96259.22
2022-09-07T17:42:12.080Z,96258.78
2022-09-07T17:44:39.591Z,96266.38
2022-09-07T17:47:07.327Z,96265.44
2022-09-07T17:49:35.055Z,96277.38
2022-09-07T17:52:04.293Z,96282.59
2022-09-07T17:54:32.798Z,96278.19
2022-09-07T17:57:00.391Z,96275.38
2022-09-07T18:02:15.355Z,96277.66
2022-09-07T18:04:42.937Z,96280.16
2022-09-07T18:07:11.855Z,96291.75
2022-09-07T18:09:39.453Z,96290.81
2022-09-07T18:12:07.316Z,96294.59
2022-09-07T18:14:34.871Z,96298.66
2022-09-07T18:17:02.473Z,96293.59
2022-09-07T18:19:29.938Z,96296.84
2022-09-07T18:21:57.467Z,96303.53
2022-09-07T18:24:27.326Z,96305.47
2022-09-07T18:26:55.312Z,96306.88
2022-09-07T18:29:33.947Z,96307.75
2022-09-07T18:32:04.650Z,96312.91
2022-09-07T18:34:33.214Z,96311.94
2022-09-07T18:37:01.110Z,96310.16
2022-09-07T18:39:30.496Z,96321.44
2022-09-07T18:41:58.252Z,96316.41
2022-09-07T18:47:21.712Z,96331.63
2022-09-07T18:49:50.756Z,96330.84
2022-09-07T18:55:08.525Z,96332.16
2022-09-07T18:57:36.638Z,96318.31
2022-09-07T19:00:05.286Z,96308.72
2022-09-07T19:02:33.438Z,96299.41
2022-09-07T19:07:48.613Z,96301.91
2022-09-07T19:10:17.762Z,96316.63
2022-09-07T19:12:46.289Z,96317.72
2022-09-07T19:15:14.161Z,96331.88
2022-09-07T19:17:41.676Z,96337.22
2022-09-07T19:20:10.247Z,96331.88
2022-09-07T19:22:37.719Z,96325.75
2022-09-07T19:25:06.078Z,96325.97
2022-09-07T19:27:34.879Z,96333.72
2022-09-07T19:30:02.572Z,96333.72
2022-09-07T19:32:30.425Z,96332.91
2022-09-07T19:34:57.914Z,96339.88
2022-09-07T19:37:26.158Z,96347.88
2022-09-07T19:39:54.992Z,96368.13
2022-09-07T19:42:23.585Z,96363.81
2022-09-07T19:44:52.641Z,96354.78
2022-09-07T19:47:20.632Z,96331.31
2022-09-07T19:49:48.300Z,96328.63
2022-09-07T19:52:15.861Z,96332.91
2022-09-07T19:54:43.377Z,96332.97
2022-09-07T19:57:11.280Z,96327.47
2022-09-07T19:59:38.862Z,96324.59
2022-09-07T20:02:07.876Z,96326.25
2022-09-07T20:04:35.800Z,96331.03
2022-09-07T20:07:03.980Z,96330.81
2022-09-07T20:09:31.505Z,96326.56
2022-09-07T20:12:01.758Z,96322.03
2022-09-07T20:14:29.410Z,96312.50
2022-09-07T20:16:57.341Z,96316.75
2022-09-07T20:19:26.338Z,96305.34
2022-09-07T20:21:55.643Z,96299.25
2022-09-07T20:24:23.294Z,96290.19
2022-09-07T20:26:50.755Z,96285.44
2022-09-07T20:29:33.829Z,96281.97
2022-09-07T20:32:01.947Z,96277.47
2022-09-07T20:34:31.062Z,96278.81
2022-09-07T20:36:58.638Z,96278.03
2022-09-07T20:39:26.526Z,96278.59
2022-09-07T20:41:54.186Z,96273.25
2022-09-07T20:44:21.660Z,96255.19
2022-09-07T20:46:49.247Z,96259.41
2022-09-07T20:49:16.806Z,96257.84
2022-09-07T20:51:45.663Z,96276.97
2022-09-07T20:54:13.595Z,96275.38
2022-09-07T20:56:41.093Z,96276.97
2022-09-07T20:59:08.655Z,96271.41
2022-09-07T21:01:36.624Z,96275.69
2022-09-07T21:04:06.155Z,96270.59
2022-09-07T21:06:34.123Z,96265.03
2022-09-07T21:09:02.943Z,96255.69
2022-09-07T21:11:32.128Z,96248.25
2022-09-07T21:14:01.122Z,96239.22
2022-09-07T21:16:29.901Z,96243.22
2022-09-07T21:18:59.468Z,96243.47
2022-09-07T21:21:29.007Z,96250.94
2022-09-07T21:23:57.845Z,96257.81
2022-09-07T21:26:27.837Z,96265.28
2022-09-07T21:28:57.009Z,96274.84
2022-09-07T21:31:25.245Z,96270.34
2022-09-07T21:33:55.835Z,96277.50
2022-09-07T21:36:23.729Z,96276.72
2022-09-07T21:38:51.712Z,96279.66
2022-09-07T21:41:20.766Z,96274.88
2022-09-07T21:43:49.589Z,96265.28
2022-09-07T21:46:19.688Z,96269.56
2022-09-07T21:48:47.486Z,96272.22
2022-09-07T21:51:15.728Z,96278.31
2022-09-07T21:53:44.127Z,96284.44
2022-09-07T21:56:13.550Z,96291.63
2022-09-07T21:58:41.471Z,96303.06
2022-09-07T22:01:14.305Z,96310.22
2022-09-07T22:03:41.981Z,96306.53
2022-09-07T22:06:10.148Z,96299.59
2022-09-07T22:08:39.671Z,96307.84
2022-09-07T22:11:09.901Z,96309.97
2022-09-07T22:13:37.949Z,96301.47
2022-09-07T22:16:06.726Z,96299.34
2022-09-07T22:18:37.174Z,96315.00
2022-09-07T22:21:08.390Z,96317.66
2022-09-07T22:23:38.453Z,96340.78
2022-09-07T22:26:06.641Z,96332.00
2022-09-07T22:28:34.964Z,96338.38
2022-09-07T22:31:10.233Z,96328.81
2022-09-07T22:33:39.615Z,96313.84
2022-09-07T22:36:13.114Z,96298.13
2022-09-07T22:38:41.197Z,96290.66
2022-09-07T22:41:10.422Z,96284.50
2022-09-07T22:43:38.405Z,96267.66
2022-09-07T22:46:06.719Z,96264.94
2022-09-07T22:48:34.331Z,96239.69
2022-09-07T22:51:04.035Z,96216.00
2022-09-07T22:53:33.444Z,96193.69
2022-09-07T22:56:01.573Z,96178.78
2022-09-07T22:58:29.446Z,96165.47
2022-09-07T23:00:59.149Z,96146.84
2022-09-07T23:03:28.374Z,96139.38
2022-09-07T23:05:56.782Z,96129.56
2022-09-07T23:08:26.196Z,96134.03
2022-09-07T23:10:54.050Z,96129.25
2022-09-07T23:13:21.696Z,96141.97
2022-09-07T23:15:49.420Z,96158.94
2022-09-07T23:29:53.740Z,96215.34
2022-09-07T23:33:12.512Z,96212.19
2022-09-07T23:39:22.960Z,96170.38
2022-09-07T23:42:16.077Z,96163.69
2022-09-07T23:51:43.181Z,96172.56
2022-09-07T23:54:43.048Z,96177.63
